createdAt,value
2023-01-01T00:01:51.408Z,52.47
2023-01-01T00:04:18.719Z,93.27
2023-01-01T00:06:47.648Z,92.67
2023-01-01T00:09:33.678Z,57.77
2023-01-01T00:12:01.043Z,59.33
2023-01-01T00:14:28.893Z,57.90
2023-01-01T00:16:57.497Z,56.10
2023-01-01T00:19:25.018Z,50.87
2023-01-01T00:21:52.449Z,66.50
2023-01-01T00:24:19.777Z,64.13
2023-01-01T00:26:47.067Z,55.13
2023-01-01T00:29:14.430Z,44.80
2023-01-01T00:31:41.829Z,48.67
2023-01-01T00:34:12.164Z,46.50
2023-01-01T00:36:41.759Z,48.37
2023-01-01T00:39:10.201Z,85.77
2023-01-01T00:41:37.649Z,43.67
2023-01-01T00:44:05.225Z,55.17
2023-01-01T00:46:33.921Z,80.77
2023-01-01T00:49:01.206Z,46.63
2023-01-01T00:51:36.592Z,35.93
2023-01-01T00:54:04.399Z,35.47
2023-01-01T00:56:31.986Z,34.20
2023-01-01T00:59:01.127Z,33.47
2023-01-01T01:01:29.682Z,29.73
2023-01-01T01:03:57.241Z,33.83
2023-01-01T01:06:24.773Z,34.73
2023-01-01T01:08:52.203Z,29.77
2023-01-01T01:11:24.540Z,29.73
2023-01-01T01:13:53.206Z,28.33
2023-01-01T01:16:25.240Z,28.63
2023-01-01T01:18:56.491Z,28.10
2023-01-01T01:21:24.499Z,28.23
2023-01-01T01:23:52.022Z,31.20
2023-01-01T01:26:25.045Z,32.93
2023-01-01T01:28:52.995Z,30.83
2023-01-01T01:31:21.518Z,34.40
2023-01-01T01:33:49.210Z,43.73
2023-01-01T01:36:18.326Z,38.73
2023-01-01T01:38:46.405Z,43.07
2023-01-01T01:41:27.228Z,45.03
2023-01-01T01:43:58.758Z,54.47
2023-01-01T01:46:29.631Z,49.40
2023-01-01T01:49:00.716Z,50.27
2023-01-01T01:51:33.074Z,93.97
2023-01-01T01:54:06.016Z,53.67
2023-01-01T01:56:41.344Z,55.57
2023-01-01T01:59:09.152Z,68.10
2023-01-01T02:01:36.653Z,64.87
2023-01-01T02:04:06.985Z,61.60
2023-01-01T02:06:35.907Z,71.83
2023-01-01T02:09:05.032Z,73.43
2023-01-01T02:11:32.379Z,64.70
2023-01-01T02:14:01.940Z,61.40
2023-01-01T02:16:29.376Z,68.47
2023-01-01T02:19:15.591Z,61.70
2023-01-01T02:21:42.940Z,71.43
2023-01-01T02:24:24.108Z,67.27
2023-01-01T02:26:59.614Z,73.73
2023-01-01T02:29:48.079Z,68.60
2023-01-01T02:32:27.611Z,72.53
2023-01-01T02:35:21.703Z,84.00
2023-01-01T02:37:51.215Z,80.97
2023-01-01T02:40:19.998Z,85.87
2023-01-01T02:42:48.299Z,75.47
2023-01-01T02:45:15.721Z,74.33
2023-01-01T02:47:42.953Z,71.37
2023-01-01T02:50:36.790Z,71.27
2023-01-01T02:53:30.530Z,75.23
2023-01-01T02:56:00.846Z,70.77
2023-01-01T02:58:51.119Z,71.50
2023-01-01T03:01:18.558Z,67.73
2023-01-01T03:03:53.321Z,70.40
2023-01-01T03:06:35.837Z,73.27
2023-01-01T03:09:23.439Z,70.57
2023-01-01T03:11:57.103Z,64.13
2023-01-01T03:14:29.763Z,61.03
2023-01-01T03:17:04.162Z,72.90
2023-01-01T03:19:35.898Z,60.70
2023-01-01T03:22:19.631Z,61.07
2023-01-01T03:24:55.126Z,55.53
2023-01-01T03:27:33.127Z,54.77
2023-01-01T03:30:03.392Z,52.33
2023-01-01T03:32:55.838Z,46.70
2023-01-01T03:35:25.768Z,46.70
2023-01-01T03:37:55.341Z,43.40
2023-01-01T03:40:22.729Z,40.90
2023-01-01T03:42:52.474Z,44.90
2023-01-01T03:45:27.880Z,45.67
2023-01-01T03:47:55.611Z,41.57
2023-01-01T03:50:29.167Z,46.90
2023-01-01T03:53:02.565Z,42.87
2023-01-01T03:55:35.788Z,38.53
2023-01-01T03:58:06.859Z,37.47
2023-01-01T04:00:35.873Z,38.77
2023-01-01T04:03:18.951Z,39.37
2023-01-01T04:05:47.298Z,38.07
2023-01-01T04:08:16.143Z,40.20
2023-01-01T04:10:45.438Z,35.60
2023-01-01T04:13:12.679Z,37.60
2023-01-01T04:15:39.909Z,34.63
2023-01-01T04:18:07.228Z,33.43
2023-01-01T04:20:36.017Z,29.80
2023-01-01T04:23:03.448Z,31.03
2023-01-01T04:25:31.011Z,30.73
2023-01-01T04:27:58.637Z,26.20
2023-01-01T04:30:26.857Z,28.47
2023-01-01T04:32:55.301Z,27.07
2023-01-01T04:35:22.444Z,29.90
2023-01-01T04:37:49.706Z,28.93
2023-01-01T04:40:16.911Z,26.00
2023-01-01T04:42:44.383Z,28.70
2023-01-01T04:45:14.824Z,27.53
2023-01-01T04:47:42.034Z,30.70
2023-01-01T04:50:09.584Z,30.43
2023-01-01T04:52:37.188Z,24.90
2023-01-01T04:55:05.565Z,29.47
2023-01-01T04:57:32.921Z,26.20
2023-01-01T05:00:00.090Z,25.63
2023-01-01T05:02:27.590Z,25.57
2023-01-01T05:04:54.876Z,24.93
2023-01-01T05:07:22.016Z,26.13
2023-01-01T05:09:50.271Z,25.33
2023-01-01T05:12:17.471Z,25.00
2023-01-01T05:14:44.644Z,25.07
2023-01-01T05:17:11.866Z,29.33
2023-01-01T05:19:39.104Z,31.83
2023-01-01T05:22:10.631Z,20.67
2023-01-01T05:24:38.443Z,22.00
2023-01-01T05:27:05.834Z,19.60
2023-01-01T05:29:32.942Z,19.63
2023-01-01T05:32:00.177Z,21.53
2023-01-01T05:36:57.465Z,21.03
2023-01-01T05:39:24.639Z,23.00
2023-01-01T05:41:51.860Z,21.83
2023-01-01T05:44:19.713Z,20.97
2023-01-01T05:46:46.960Z,24.80
2023-01-01T05:49:15.618Z,20.57
2023-01-01T05:51:42.739Z,24.00
2023-01-01T05:56:36.816Z,24.93
2023-01-01T05:59:03.970Z,20.90
2023-01-01T06:01:32.221Z,20.80
2023-01-01T06:03:59.988Z,18.17
2023-01-01T06:06:32.889Z,22.47
2023-01-01T06:09:01.491Z,20.77
2023-01-01T06:11:29.301Z,17.83
2023-01-01T06:13:58.355Z,16.43
2023-01-01T06:16:26.054Z,17.67
2023-01-01T06:18:53.313Z,16.40
2023-01-01T06:21:21.890Z,20.73
2023-01-01T06:23:49.034Z,18.30
2023-01-01T06:26:17.599Z,19.43
2023-01-01T06:28:45.319Z,15.60
2023-01-01T06:31:14.716Z,14.60
2023-01-01T06:33:42.140Z,16.20
2023-01-01T06:36:10.588Z,15.10
2023-01-01T06:38:38.961Z,11.70
2023-01-01T06:41:07.566Z,12.20
2023-01-01T06:43:35.636Z,16.17
2023-01-01T06:46:14.965Z,18.53
2023-01-01T06:48:42.330Z,16.33
2023-01-01T06:51:10.668Z,12.40
2023-01-01T06:53:38.061Z,14.77
2023-01-01T06:56:05.379Z,18.80
2023-01-01T06:58:32.698Z,14.70
2023-01-01T07:01:08.861Z,12.57
2023-01-01T07:03:36.961Z,17.87
2023-01-01T07:06:04.400Z,14.93
2023-01-01T07:08:31.527Z,15.97
2023-01-01T07:10:58.722Z,13.00
2023-01-01T07:13:26.430Z,11.90
2023-01-01T07:15:53.948Z,21.43
2023-01-01T07:18:21.750Z,16.87
2023-01-01T07:20:50.094Z,12.10
2023-01-01T07:23:17.267Z,13.00
2023-01-01T07:25:44.608Z,11.73
2023-01-01T07:28:13.056Z,13.37
2023-01-01T07:30:40.176Z,11.63
2023-01-01T07:33:07.395Z,12.33
2023-01-01T07:35:34.572Z,11.10
2023-01-01T07:38:01.700Z,12.10
2023-01-01T07:40:28.824Z,13.53
2023-01-01T07:42:55.992Z,11.97
2023-01-01T07:45:23.116Z,10.93
2023-01-01T07:47:51.608Z,12.37
2023-01-01T07:50:18.928Z,11.80
2023-01-01T07:52:46.080Z,13.90
2023-01-01T07:55:14.270Z,8.40
2023-01-01T07:57:41.879Z,14.43
2023-01-01T08:00:09.945Z,9.23
2023-01-01T08:02:40.152Z,10.07
2023-01-01T08:05:07.847Z,9.03
2023-01-01T08:07:35.108Z,11.20
2023-01-01T08:10:02.400Z,13.23
2023-01-01T08:12:29.519Z,8.87
2023-01-01T08:14:56.638Z,8.57
2023-01-01T08:17:23.774Z,9.90
2023-01-01T08:19:51.936Z,8.90
2023-01-01T08:22:19.119Z,9.87
2023-01-01T08:24:46.242Z,9.70
2023-01-01T08:27:14.443Z,8.43
2023-01-01T08:29:41.833Z,8.90
2023-01-01T08:32:10.639Z,9.40
2023-01-01T08:34:37.825Z,8.77
2023-01-01T08:37:05.144Z,9.07
2023-01-01T08:39:32.280Z,8.50
2023-01-01T08:41:59.376Z,7.90
2023-01-01T08:44:26.485Z,6.63
2023-01-01T08:46:53.852Z,7.90
2023-01-01T08:49:21.351Z,11.73
2023-01-01T08:51:48.489Z,7.60
2023-01-01T08:54:15.640Z,10.20
2023-01-01T08:56:43.104Z,8.80
2023-01-01T08:59:10.223Z,11.40
2023-01-01T09:01:37.592Z,10.13
2023-01-01T09:04:05.657Z,10.30
2023-01-01T09:06:34.416Z,9.47
2023-01-01T09:09:01.517Z,7.27
2023-01-01T09:11:28.948Z,9.03
2023-01-01T09:13:56.089Z,11.63
2023-01-01T09:16:23.720Z,10.73
2023-01-01T09:18:51.047Z,6.67
2023-01-01T09:21:18.429Z,10.70
2023-01-01T09:23:45.672Z,7.60
2023-01-01T09:26:12.968Z,8.03
2023-01-01T09:28:40.167Z,10.10
2023-01-01T09:31:07.386Z,9.90
2023-01-01T09:33:35.011Z,18.60
2023-01-01T09:36:21.641Z,15.30
2023-01-01T09:38:49.674Z,9.33
2023-01-01T09:41:35.849Z,7.87
2023-01-01T09:44:16.695Z,8.77
2023-01-01T09:46:43.978Z,7.87
2023-01-01T09:49:14.920Z,10.43
2023-01-01T09:51:48.935Z,6.37
2023-01-01T09:54:25.275Z,6.97
2023-01-01T09:56:54.522Z,7.60
2023-01-01T09:59:21.749Z,7.37
2023-01-01T10:01:55.207Z,4.90
2023-01-01T10:04:40.990Z,6.30
2023-01-01T10:07:15.426Z,7.03
2023-01-01T10:10:01.541Z,8.03
2023-01-01T10:12:37.872Z,10.73
2023-01-01T10:15:10.778Z,4.73
2023-01-01T10:17:41.851Z,6.90
2023-01-01T10:20:28.523Z,10.87
2023-01-01T10:22:59.863Z,6.57
2023-01-01T10:25:28.201Z,8.53
2023-01-01T10:28:04.555Z,7.60
2023-01-01T10:30:31.839Z,5.63
2023-01-01T10:33:01.857Z,7.50
2023-01-01T10:35:32.085Z,12.30
2023-01-01T10:37:59.914Z,4.63
2023-01-01T10:40:28.377Z,8.40
2023-01-01T10:42:56.825Z,5.73
2023-01-01T10:45:32.447Z,4.13
2023-01-01T10:48:13.443Z,7.43
2023-01-01T10:50:51.445Z,7.10
2023-01-01T10:53:29.001Z,7.10
2023-01-01T10:56:06.882Z,5.53
2023-01-01T10:58:37.203Z,6.03
2023-01-01T11:01:05.476Z,7.20
2023-01-01T11:03:33.132Z,8.23
2023-01-01T11:06:10.915Z,5.10
2023-01-01T11:08:38.965Z,5.77
2023-01-01T11:11:07.773Z,13.67
2023-01-01T11:13:35.064Z,7.00
2023-01-01T11:16:02.434Z,9.43
2023-01-01T11:18:35.946Z,5.60
2023-01-01T11:21:05.105Z,6.00
2023-01-01T11:23:34.320Z,4.83
2023-01-01T11:26:04.731Z,8.57
2023-01-01T11:28:34.771Z,7.83
2023-01-01T11:31:19.328Z,4.03
2023-01-01T11:33:48.548Z,5.70
2023-01-01T11:36:26.119Z,8.00
2023-01-01T11:39:12.101Z,4.90
2023-01-01T11:41:58.089Z,5.30
2023-01-01T11:44:27.962Z,7.60
2023-01-01T11:46:55.147Z,5.47
2023-01-01T11:49:25.017Z,9.97
2023-01-01T11:51:52.331Z,5.37
2023-01-01T11:54:33.938Z,11.97
2023-01-01T11:57:17.685Z,9.30
2023-01-01T11:59:47.615Z,4.57
2023-01-01T12:02:18.940Z,10.00
2023-01-01T12:04:53.506Z,5.30
2023-01-01T12:07:30.346Z,7.17
2023-01-01T12:10:19.840Z,5.87
2023-01-01T12:12:51.419Z,9.07
2023-01-01T12:15:18.878Z,8.80
2023-01-01T12:18:09.263Z,7.03
2023-01-01T12:20:39.374Z,9.10
2023-01-01T12:23:08.868Z,5.43
2023-01-01T12:25:44.555Z,8.53
2023-01-01T12:28:25.100Z,5.47
2023-01-01T12:30:59.201Z,11.37
2023-01-01T12:33:45.053Z,7.47
2023-01-01T12:36:30.666Z,12.90
2023-01-01T12:39:16.689Z,8.00
2023-01-01T12:41:51.001Z,6.37
2023-01-01T12:44:35.858Z,8.23
2023-01-01T12:47:08.301Z,9.53
2023-01-01T12:49:38.611Z,6.30
2023-01-01T12:52:07.537Z,7.17
2023-01-01T12:54:34.698Z,8.73
2023-01-01T12:57:14.085Z,8.00
2023-01-01T12:59:44.331Z,6.93
2023-01-01T13:02:29.375Z,7.43
2023-01-01T13:05:15.869Z,7.17
2023-01-01T13:07:45.740Z,8.33
2023-01-01T13:10:45.465Z,4.10
2023-01-01T13:13:13.170Z,7.13
2023-01-01T13:15:41.502Z,8.70
2023-01-01T13:18:17.460Z,7.73
2023-01-01T13:20:45.660Z,7.10
2023-01-01T13:23:31.534Z,7.80
2023-01-01T13:26:17.805Z,7.57
2023-01-01T13:29:05.387Z,4.10
2023-01-01T13:31:39.330Z,4.40
2023-01-01T13:34:26.058Z,7.07
2023-01-01T13:37:20.829Z,7.23
2023-01-01T13:39:50.928Z,8.70
2023-01-01T13:42:57.373Z,8.37
2023-01-01T13:46:01.091Z,8.20
2023-01-01T13:48:20.117Z,7.83
2023-01-01T13:50:56.350Z,9.07
2023-01-01T13:53:35.575Z,12.13
2023-01-01T13:56:08.120Z,7.03
2023-01-01T13:58:52.366Z,8.70
2023-01-01T14:01:35.129Z,15.03
2023-01-01T14:04:05.137Z,8.93
2023-01-01T14:06:37.802Z,4.67
2023-01-01T14:09:13.428Z,9.23
2023-01-01T14:11:41.074Z,5.93
2023-01-01T14:14:24.961Z,9.97
2023-01-01T14:17:00.280Z,5.67
2023-01-01T14:19:28.120Z,5.13
2023-01-01T14:21:55.522Z,9.03
2023-01-01T14:24:25.330Z,5.83
2023-01-01T14:26:54.674Z,8.87
2023-01-01T14:29:27.183Z,5.37
2023-01-01T14:31:54.633Z,8.60
2023-01-01T14:34:27.120Z,6.20
2023-01-01T14:36:55.082Z,5.90
2023-01-01T14:39:28.390Z,5.13
2023-01-01T14:42:01.408Z,8.10
2023-01-01T14:44:31.859Z,7.77
2023-01-01T14:47:02.477Z,6.30
2023-01-01T14:49:31.365Z,5.20
2023-01-01T14:52:02.253Z,6.73
2023-01-01T14:54:34.261Z,5.70
2023-01-01T14:57:01.873Z,5.43
2023-01-01T14:59:33.179Z,5.30
2023-01-01T15:02:14.098Z,6.43
2023-01-01T15:04:41.561Z,8.63
2023-01-01T15:07:28.476Z,7.10
2023-01-01T15:09:57.129Z,9.97
2023-01-01T15:12:24.672Z,8.60
2023-01-01T15:14:53.035Z,8.27
2023-01-01T15:17:25.061Z,7.20
2023-01-01T15:20:21.621Z,8.73
2023-01-01T15:22:48.966Z,8.23
2023-01-01T15:25:16.958Z,7.20
2023-01-01T15:27:50.084Z,7.43
2023-01-01T15:30:31.242Z,6.27
2023-01-01T15:33:07.042Z,6.47
2023-01-01T15:35:34.733Z,5.03
2023-01-01T15:38:15.737Z,6.47
2023-01-01T15:40:47.883Z,5.50
2023-01-01T15:43:25.581Z,6.10
2023-01-01T15:45:54.556Z,6.00
2023-01-01T15:48:24.545Z,6.53
2023-01-01T15:50:51.656Z,7.70
2023-01-01T15:53:21.863Z,5.50
2023-01-01T15:55:56.630Z,4.93
2023-01-01T15:58:30.021Z,7.53
2023-01-01T16:00:59.190Z,6.77
2023-01-01T16:03:27.994Z,8.00
2023-01-01T16:05:56.502Z,20.37
2023-01-01T16:08:25.144Z,145.50
2023-01-01T16:10:52.850Z,9.57
2023-01-01T16:13:20.054Z,5.73
2023-01-01T16:15:54.239Z,7.77
2023-01-01T16:18:24.404Z,15.70
2023-01-01T16:20:52.304Z,11.20
2023-01-01T16:23:19.550Z,7.80
2023-01-01T16:25:46.785Z,41.37
2023-01-01T16:28:14.516Z,11.77
2023-01-01T16:30:41.697Z,9.13
2023-01-01T16:33:13.593Z,9.20
2023-01-01T16:35:40.748Z,16.07
2023-01-01T16:38:07.933Z,6.67
2023-01-01T16:40:38.181Z,6.43
2023-01-01T16:43:09.444Z,10.53
2023-01-01T16:45:36.671Z,10.20
2023-01-01T16:48:03.871Z,7.70
2023-01-01T16:50:30.980Z,9.00
2023-01-01T16:52:58.135Z,9.83
2023-01-01T16:55:25.269Z,11.40
2023-01-01T16:58:07.396Z,11.20
2023-01-01T17:00:39.617Z,8.73
2023-01-01T17:03:06.790Z,7.63
2023-01-01T17:05:40.501Z,6.07
2023-01-01T17:08:11.512Z,5.80
2023-01-01T17:10:38.717Z,9.47
2023-01-01T17:13:07.574Z,9.50
2023-01-01T17:15:35.078Z,9.63
2023-01-01T17:18:02.367Z,9.80
2023-01-01T17:20:29.509Z,11.70
2023-01-01T17:22:56.668Z,9.83
2023-01-01T17:25:24.897Z,11.10
2023-01-01T17:27:52.021Z,10.13
2023-01-01T17:30:19.255Z,11.87
2023-01-01T17:32:46.379Z,17.80
2023-01-01T17:35:13.514Z,13.27
2023-01-01T17:37:40.690Z,13.77
2023-01-01T17:40:08.227Z,9.63
2023-01-01T17:42:35.429Z,15.43
2023-01-01T17:45:03.222Z,10.83
2023-01-01T17:47:33.033Z,12.30
2023-01-01T17:50:00.897Z,13.20
2023-01-01T17:52:28.250Z,16.57
2023-01-01T17:54:55.441Z,20.03
2023-01-01T17:57:22.588Z,14.70
2023-01-01T17:59:49.762Z,14.50
2023-01-01T18:02:17.276Z,17.10
2023-01-01T18:04:45.228Z,16.43
2023-01-01T18:07:12.364Z,14.90
2023-01-01T18:09:40.341Z,17.10
2023-01-01T18:12:07.613Z,17.40
2023-01-01T18:14:34.711Z,23.37
2023-01-01T18:17:01.905Z,17.93
2023-01-01T18:19:29.347Z,15.40
2023-01-01T18:21:56.481Z,15.40
2023-01-01T18:24:23.571Z,12.60
2023-01-01T18:26:51.733Z,11.20
2023-01-01T18:29:18.980Z,10.63
2023-01-01T18:31:46.216Z,16.47
2023-01-01T18:34:13.487Z,7.83
2023-01-01T18:36:41.171Z,10.77
2023-01-01T18:39:21.413Z,11.27
2023-01-01T18:41:56.507Z,14.87
2023-01-01T18:44:28.649Z,15.33
2023-01-01T18:47:01.452Z,10.50
2023-01-01T18:49:30.826Z,11.20
2023-01-01T18:52:01.376Z,9.20
2023-01-01T18:54:30.234Z,12.13
2023-01-01T18:57:02.455Z,8.83
2023-01-01T18:59:30.047Z,9.43
2023-01-01T19:01:58.127Z,12.13
2023-01-01T19:04:25.364Z,8.30
2023-01-01T19:06:54.673Z,9.50
2023-01-01T19:09:26.790Z,10.00
2023-01-01T19:11:54.663Z,12.00
2023-01-01T19:14:23.305Z,13.30
2023-01-01T19:16:53.217Z,10.87
2023-01-01T19:19:24.544Z,11.77
2023-01-01T19:22:12.269Z,11.97
2023-01-01T19:24:39.943Z,7.33
2023-01-01T19:27:13.200Z,9.63
2023-01-01T19:29:42.906Z,11.00
2023-01-01T19:32:10.025Z,9.80
2023-01-01T19:34:38.577Z,10.20
2023-01-01T19:37:05.859Z,10.73
2023-01-01T19:39:36.651Z,9.73
2023-01-01T19:42:06.777Z,11.23
2023-01-01T19:44:34.729Z,11.60
2023-01-01T19:47:04.138Z,9.03
2023-01-01T19:49:31.551Z,11.40
2023-01-01T19:51:58.738Z,12.50
2023-01-01T19:54:26.369Z,16.70
2023-01-01T19:56:53.511Z,12.43
2023-01-01T19:59:20.760Z,15.67
2023-01-01T20:02:03.391Z,15.73
2023-01-01T20:04:35.099Z,11.30
2023-01-01T20:07:02.285Z,15.13
2023-01-01T20:09:29.417Z,10.50
2023-01-01T20:11:56.534Z,14.40
2023-01-01T20:14:24.066Z,8.80
2023-01-01T20:16:53.313Z,14.00
2023-01-01T20:19:20.670Z,12.63
2023-01-01T20:22:06.382Z,11.47
2023-01-01T20:24:33.503Z,15.23
2023-01-01T20:27:01.504Z,13.63
2023-01-01T20:29:29.443Z,15.43
2023-01-01T20:31:58.993Z,11.77
2023-01-01T20:34:26.653Z,19.00
2023-01-01T20:37:12.714Z,15.60
2023-01-01T20:39:39.934Z,17.37
2023-01-01T20:42:07.099Z,14.30
2023-01-01T20:44:35.588Z,15.20
2023-01-01T20:47:02.822Z,14.43
2023-01-01T20:49:31.063Z,18.23
2023-01-01T20:51:59.680Z,12.60
2023-01-01T20:54:26.846Z,15.67
2023-01-01T20:56:53.966Z,12.67
2023-01-01T20:59:38.368Z,14.40
2023-01-01T21:02:06.974Z,12.87
2023-01-01T21:04:38.048Z,11.23
2023-01-01T21:07:06.314Z,18.30
2023-01-01T21:09:33.461Z,12.77
2023-01-01T21:12:01.743Z,17.80
2023-01-01T21:14:28.996Z,15.53
2023-01-01T21:16:56.183Z,19.27
2023-01-01T21:19:27.017Z,12.97
2023-01-01T21:21:58.598Z,13.10
2023-01-01T21:24:27.548Z,10.93
2023-01-01T21:26:56.297Z,15.87
2023-01-01T21:29:24.723Z,18.00
2023-01-01T21:32:10.994Z,14.57
2023-01-01T21:34:40.478Z,15.30
2023-01-01T21:37:13.195Z,22.80
2023-01-01T21:39:40.332Z,17.10
2023-01-01T21:42:19.842Z,21.77
2023-01-01T21:44:48.020Z,21.80
2023-01-01T21:47:23.274Z,19.30
2023-01-01T21:49:50.894Z,11.77
2023-01-01T21:52:19.925Z,13.23
2023-01-01T21:54:48.190Z,13.07
2023-01-01T21:57:17.733Z,12.83
2023-01-01T21:59:47.419Z,18.83
2023-01-01T22:02:14.687Z,15.03
2023-01-01T22:04:44.858Z,18.23
2023-01-01T22:10:19.242Z,11.03
2023-01-01T22:12:46.654Z,14.10
2023-01-01T22:15:37.178Z,17.97
2023-01-01T22:18:10.519Z,12.73
2023-01-01T22:20:42.599Z,15.33
2023-01-01T22:23:33.067Z,13.90
2023-01-01T22:26:00.221Z,13.07
2023-01-01T22:28:33.900Z,15.13
2023-01-01T22:31:01.931Z,13.07
2023-01-01T22:33:39.151Z,19.67
2023-01-01T22:36:14.072Z,13.30
2023-01-01T22:38:41.503Z,15.37
2023-01-01T22:41:09.031Z,12.20
2023-01-01T22:43:37.720Z,17.07
2023-01-01T22:46:28.229Z,20.10
2023-01-01T22:49:01.587Z,15.80
2023-01-01T22:51:32.641Z,17.77
2023-01-01T22:53:59.776Z,17.77
2023-01-01T22:56:26.966Z,15.27
2023-01-01T22:58:57.333Z,17.67
2023-01-01T23:01:25.960Z,17.40
2023-01-01T23:03:53.750Z,22.07
2023-01-01T23:06:21.352Z,19.43
2023-01-01T23:08:49.720Z,21.50
2023-01-01T23:11:17.440Z,11.67
2023-01-01T23:14:06.808Z,17.77
2023-01-01T23:16:34.742Z,14.87
2023-01-01T23:19:02.285Z,14.73
2023-01-01T23:21:31.845Z,15.10
2023-01-01T23:24:02.106Z,16.67
2023-01-01T23:26:30.864Z,19.33
2023-01-01T23:28:58.141Z,16.00
2023-01-01T23:31:27.976Z,18.60
2023-01-01T23:33:56.199Z,22.90
2023-01-01T23:36:24.355Z,14.03
2023-01-01T23:38:51.759Z,12.63
2023-01-01T23:41:19.096Z,13.93
2023-01-01T23:43:46.403Z,14.60
2023-01-01T23:46:14.156Z,19.30
2023-01-01T23:48:44.054Z,12.83
2023-01-01T23:51:11.827Z,17.03
2023-01-01T23:53:39.289Z,13.10
2023-01-01T23:56:06.866Z,13.93
2023-01-01T23:58:34.256Z,12.30
